Time;durP1;ratioP1;P1;durP2;ratioP2;P2;SDS_P1;SDS_P2;PMS_P1;PMS_P2;Temp;Humidity;BMP_temperature;BMP_pressure;BME280_temperature;BME280_humidity;BME280_pressure;Samples;Min_cycle;Max_cycle;Signal;HPM_P1;HPM_P2
2021/07/22 00:00:34;;;;;;;7.65;6.05;;;19.30;99.90;;;;;;5057083;28;20467;-91
2021/07/22 00:02:59;;;;;;;8.90;6.20;;;19.30;99.90;;;;;;5057346;28;20020;-92
2021/07/22 00:05:25;;;;;;;7.68;5.82;;;19.30;99.90;;;;;;5057492;28;20033;-90
2021/07/22 00:07:50;;;;;;;9.63;5.90;;;19.20;99.90;;;;;;5059669;28;20025;-89
2021/07/22 00:10:17;;;;;;;8.15;6.35;;;19.10;99.90;;;;;;5057181;28;20063;-88
2021/07/22 00:12:43;;;;;;;10.13;6.35;;;19.10;99.90;;;;;;5068160;28;20037;-89
2021/07/22 00:15:10;;;;;;;9.10;6.80;;;19.00;99.90;;;;;;5063241;28;20017;-89
2021/07/22 00:17:36;;;;;;;9.00;6.85;;;18.90;99.90;;;;;;5061422;28;20025;-87
2021/07/22 00:20:03;;;;;;;8.50;6.05;;;18.90;99.90;;;;;;5062021;28;20033;-88
2021/07/22 00:22:29;;;;;;;8.25;5.82;;;18.80;99.90;;;;;;5060000;28;20458;-90
2021/07/22 00:24:54;;;;;;;7.57;5.80;;;18.80;99.90;;;;;;5067739;28;20053;-88
2021/07/22 00:27:20;;;;;;;7.60;5.85;;;18.80;99.90;;;;;;5066574;28;20198;-88
2021/07/22 00:29:46;;;;;;;8.95;6.47;;;18.70;99.90;;;;;;5071188;28;20049;-88
2021/07/22 00:32:12;;;;;;;8.45;5.90;;;18.70;99.90;;;;;;5071883;28;20086;-89
2021/07/22 00:34:39;;;;;;;8.85;5.88;;;18.70;99.90;;;;;;5069573;28;20062;-88
2021/07/22 00:37:05;;;;;;;9.15;6.10;;;18.60;99.90;;;;;;5068478;28;20090;-88
2021/07/22 00:39:31;;;;;;;7.93;5.82;;;18.70;99.90;;;;;;5079713;28;20035;-88
2021/07/22 00:41:57;;;;;;;10.32;6.15;;;18.60;99.90;;;;;;5079388;28;20084;-88
2021/07/22 00:44:22;;;;;;;8.35;6.10;;;18.60;99.90;;;;;;5080542;28;20601;-87
2021/07/22 00:46:48;;;;;;;8.55;6.00;;;18.60;99.90;;;;;;5078380;28;20024;-89
2021/07/22 00:49:15;;;;;;;7.22;5.15;;;18.60;99.90;;;;;;5069020;28;20021;-90
2021/07/22 00:51:41;;;;;;;7.53;5.47;;;18.60;99.90;;;;;;5074356;28;20038;-87
2021/07/22 00:54:07;;;;;;;9.50;6.05;;;18.60;99.90;;;;;;5060767;28;20024;-89
2021/07/22 00:56:34;;;;;;;8.02;5.60;;;18.60;99.90;;;;;;5070715;28;20115;-88
2021/07/22 00:59:00;;;;;;;8.68;6.45;;;18.60;99.90;;;;;;5071930;28;20124;-89
2021/07/22 01:01:27;;;;;;;9.00;6.85;;;18.50;99.90;;;;;;5072424;28;20013;-88
2021/07/22 01:03:53;;;;;;;8.13;6.05;;;18.50;99.90;;;;;;5060620;28;20044;-89
2021/07/22 01:06:19;;;;;;;9.30;6.32;;;18.50;99.90;;;;;;5079850;28;20035;-89
2021/07/22 01:08:44;;;;;;;8.85;5.80;;;18.40;99.90;;;;;;5063256;28;20021;-90
2021/07/22 01:11:10;;;;;;;9.60;5.90;;;18.40;99.90;;;;;;5081328;28;20085;-90
2021/07/22 01:13:36;;;;;;;8.93;6.25;;;18.40;99.90;;;;;;5093283;28;20031;-90
2021/07/22 01:16:01;;;;;;;7.15;5.43;;;18.40;99.90;;;;;;5081629;28;20485;-89
2021/07/22 01:18:27;;;;;;;8.75;5.97;;;18.30;99.90;;;;;;5080467;28;20030;-87
2021/07/22 01:20:53;;;;;;;8.30;6.00;;;18.30;99.90;;;;;;5064964;28;20004;-90
2021/07/22 01:23:18;;;;;;;8.07;5.60;;;18.40;99.90;;;;;;5080786;28;20052;-91
2021/07/22 01:25:44;;;;;;;7.72;5.63;;;18.30;99.90;;;;;;5080555;28;20033;-88
2021/07/22 01:28:10;;;;;;;8.63;5.78;;;18.30;99.90;;;;;;5079490;28;20048;-90
2021/07/22 01:30:35;;;;;;;9.68;6.28;;;18.30;99.90;;;;;;5079702;28;20024;-90
2021/07/22 01:33:01;;;;;;;7.25;5.75;;;18.30;99.90;;;;;;5079222;28;20021;-91
2021/07/22 01:35:26;;;;;;;7.72;5.82;;;18.20;99.90;;;;;;5080122;28;20027;-90
2021/07/22 01:37:52;;;;;;;7.63;5.63;;;18.20;99.90;;;;;;5080294;28;20145;-90
2021/07/22 01:40:18;;;;;;;9.60;6.57;;;18.20;99.90;;;;;;5079341;28;20020;-91
2021/07/22 01:42:44;;;;;;;7.78;5.85;;;18.20;99.90;;;;;;5080618;28;20088;-88
2021/07/22 01:45:11;;;;;;;10.73;6.57;;;18.20;99.90;;;;;;5080807;28;20024;-89
2021/07/22 01:47:37;;;;;;;8.30;6.25;;;18.20;99.90;;;;;;5080327;28;20021;-91
2021/07/22 01:50:03;;;;;;;8.27;6.05;;;18.10;99.90;;;;;;5080600;28;20024;-88
2021/07/22 01:52:29;;;;;;;8.68;6.25;;;18.10;99.90;;;;;;5079534;28;20024;-88
2021/07/22 01:54:54;;;;;;;9.55;7.00;;;18.10;99.90;;;;;;5080242;28;20047;-88
2021/07/22 01:57:21;;;;;;;8.82;6.13;;;18.00;99.90;;;;;;5080105;28;20021;-88
2021/07/22 01:59:48;;;;;;;8.77;6.60;;;18.00;99.90;;;;;;5079716;28;20064;-89
2021/07/22 02:02:14;;;;;;;9.13;6.25;;;17.90;99.90;;;;;;5080501;28;20021;-90
2021/07/22 02:04:40;;;;;;;10.43;6.97;;;17.90;99.90;;;;;;5081211;28;20074;-88
2021/07/22 02:07:06;;;;;;;9.77;7.38;;;17.80;99.90;;;;;;5080353;28;20032;-88
2021/07/22 02:09:32;;;;;;;9.57;7.38;;;17.80;99.90;;;;;;5079788;28;20036;-87
2021/07/22 02:11:59;;;;;;;11.70;8.00;;;17.70;99.90;;;;;;5081228;28;20024;-89
2021/07/22 02:14:26;;;;;;;11.02;8.00;;;17.70;99.90;;;;;;5079682;28;20069;-90
2021/07/22 02:16:52;;;;;;;10.45;7.22;;;17.60;99.90;;;;;;5079003;28;20028;-90
2021/07/22 02:19:18;;;;;;;11.23;7.88;;;17.60;99.90;;;;;;5079643;28;20096;-90
2021/07/22 02:21:44;;;;;;;11.07;8.13;;;17.60;99.90;;;;;;5079813;28;20040;-92
2021/07/22 02:24:11;;;;;;;12.55;8.55;;;17.60;99.90;;;;;;5079736;28;20044;-90
2021/07/22 02:26:37;;;;;;;13.85;9.25;;;17.60;99.90;;;;;;5079584;28;20033;-89
2021/07/22 02:29:04;;;;;;;13.13;9.05;;;17.50;99.90;;;;;;5080147;28;20039;-91
2021/07/22 02:31:30;;;;;;;12.20;8.63;;;17.60;99.90;;;;;;5063751;28;20025;-90
2021/07/22 02:33:56;;;;;;;11.23;8.35;;;17.50;99.90;;;;;;5078590;28;20112;-90
2021/07/22 02:36:21;;;;;;;11.65;8.52;;;17.50;99.90;;;;;;5081367;28;20111;-90
2021/07/22 02:38:48;;;;;;;10.98;7.78;;;17.50;99.90;;;;;;5080835;28;20135;-89
2021/07/22 02:41:14;;;;;;;11.00;8.05;;;17.40;99.90;;;;;;5084181;28;20051;-89
2021/07/22 02:43:41;;;;;;;11.57;7.95;;;17.40;99.90;;;;;;5090805;28;20009;-89
2021/07/22 02:46:10;;;;;;;10.60;7.80;;;17.40;99.90;;;;;;5080911;28;20043;-88
2021/07/22 02:48:36;;;;;;;10.30;7.70;;;17.40;99.90;;;;;;5078832;28;20500;-88
2021/07/22 02:51:06;;;;;;;10.45;7.57;;;17.30;99.90;;;;;;5078448;28;20168;-89
2021/07/22 02:53:32;;;;;;;12.43;8.30;;;17.40;99.90;;;;;;5079298;28;20075;-88
2021/07/22 02:55:59;;;;;;;11.90;8.95;;;17.30;99.90;;;;;;5079314;28;20021;-89
2021/07/22 02:58:25;;;;;;;10.65;8.20;;;17.30;99.90;;;;;;5080584;28;20028;-90
2021/07/22 03:00:51;;;;;;;10.38;7.90;;;17.30;99.90;;;;;;5079042;28;20077;-88
2021/07/22 03:03:17;;;;;;;10.65;7.55;;;17.30;99.90;;;;;;5062503;28;20008;-91
2021/07/22 03:05:44;;;;;;;11.50;8.35;;;17.30;99.90;;;;;;5078864;28;20035;-88
2021/07/22 03:08:09;;;;;;;11.85;8.90;;;17.30;99.90;;;;;;5077859;28;20021;-91
2021/07/22 03:10:35;;;;;;;12.20;9.38;;;17.30;99.90;;;;;;5078000;28;20040;-89
2021/07/22 03:13:01;;;;;;;11.25;7.88;;;17.10;99.90;;;;;;5078496;28;20348;-90
2021/07/22 03:15:28;;;;;;;11.23;8.25;;;17.10;99.90;;;;;;5078570;28;20115;-90
2021/07/22 03:17:54;;;;;;;11.73;7.88;;;17.10;99.90;;;;;;5077746;28;20500;-90
2021/07/22 03:20:19;;;;;;;11.30;8.55;;;17.10;99.90;;;;;;5078357;28;20080;-89
2021/07/22 03:22:45;;;;;;;12.85;8.55;;;17.10;99.90;;;;;;5078074;28;20021;-90
2021/07/22 03:25:11;;;;;;;11.02;8.30;;;17.10;99.90;;;;;;5076326;28;20128;-91
2021/07/22 03:27:37;;;;;;;12.45;9.00;;;17.00;99.90;;;;;;5077663;28;20021;-89
2021/07/22 03:30:03;;;;;;;11.57;8.63;;;17.00;99.90;;;;;;5079393;28;20043;-89
2021/07/22 03:32:28;;;;;;;11.60;8.13;;;17.00;99.90;;;;;;5076872;28;20029;-88
2021/07/22 03:34:54;;;;;;;12.45;8.57;;;17.00;99.90;;;;;;5078688;28;20032;-88
2021/07/22 03:37:20;;;;;;;13.43;9.02;;;17.00;99.90;;;;;;5078238;28;20051;-89
2021/07/22 03:39:46;;;;;;;12.25;8.77;;;17.00;99.90;;;;;;5077998;28;20474;-89
2021/07/22 03:42:12;;;;;;;12.10;7.88;;;17.00;99.90;;;;;;5076505;28;20039;-88
2021/07/22 03:44:37;;;;;;;11.57;8.15;;;17.00;99.90;;;;;;5078139;28;20463;-88
2021/07/22 03:47:04;;;;;;;13.60;8.07;;;17.00;99.90;;;;;;5077845;28;20021;-89
2021/07/22 03:49:30;;;;;;;10.52;7.72;;;17.00;99.90;;;;;;5077415;28;20021;-88
2021/07/22 03:51:57;;;;;;;12.70;8.27;;;17.00;99.90;;;;;;5077762;28;20058;-88
2021/07/22 03:54:22;;;;;;;13.93;9.20;;;17.00;99.90;;;;;;5077461;28;20043;-89
2021/07/22 03:56:48;;;;;;;13.52;10.07;;;17.00;99.90;;;;;;5078695;28;20047;-88
2021/07/22 03:59:14;;;;;;;13.85;10.00;;;17.00;99.90;;;;;;5077408;28;20066;-88
2021/07/22 04:01:41;;;;;;;16.45;10.38;;;16.90;99.90;;;;;;5078919;28;20017;-89
2021/07/22 04:04:06;;;;;;;12.40;9.63;;;17.00;99.90;;;;;;5060957;28;20362;-88
2021/07/22 04:06:40;;;;;;;13.05;8.88;;;17.00;99.90;;;;;;5061315;28;20064;-88
2021/07/22 04:09:08;;;;;;;11.43;8.25;;;17.00;99.90;;;;;;5077850;28;20028;-90
2021/07/22 04:11:37;;;;;;;12.13;9.50;;;17.00;99.90;;;;;;5078080;28;20031;-89
2021/07/22 04:14:06;;;;;;;13.55;9.77;;;17.00;99.90;;;;;;5088249;28;20021;-90
2021/07/22 04:16:34;;;;;;;12.80;8.48;;;16.90;99.90;;;;;;5084782;28;20048;-91
2021/07/22 04:19:00;;;;;;;15.18;8.80;;;17.00;99.90;;;;;;5077606;28;20021;-90
2021/07/22 04:21:25;;;;;;;12.52;8.70;;;17.00;99.90;;;;;;5077004;28;20063;-90
2021/07/22 04:23:51;;;;;;;12.98;9.15;;;16.90;99.90;;;;;;5076929;28;20056;-89
2021/07/22 04:26:17;;;;;;;11.25;9.18;;;17.00;99.90;;;;;;5078369;28;20081;-90
2021/07/22 04:28:44;;;;;;;12.85;8.68;;;16.90;99.90;;;;;;5077118;28;20111;-88
2021/07/22 04:31:15;;;;;;;11.90;9.57;;;16.90;99.90;;;;;;5077249;28;20032;-89
2021/07/22 04:33:41;;;;;;;13.05;9.38;;;16.90;99.90;;;;;;5078502;28;20024;-89
2021/07/22 04:36:08;;;;;;;14.23;9.07;;;16.90;99.90;;;;;;5077184;28;20389;-89
2021/07/22 04:38:34;;;;;;;13.63;9.95;;;16.90;99.90;;;;;;5078040;28;20082;-89
2021/07/22 04:41:02;;;;;;;13.48;9.45;;;16.90;99.90;;;;;;5078587;28;20481;-91
2021/07/22 04:43:28;;;;;;;12.65;8.63;;;17.00;99.90;;;;;;5079296;28;20035;-90
2021/07/22 04:45:53;;;;;;;11.90;7.97;;;17.00;99.90;;;;;;5079546;28;20060;-90
2021/07/22 04:48:19;;;;;;;12.95;8.55;;;17.00;99.90;;;;;;5078882;28;20033;-88
2021/07/22 04:50:45;;;;;;;9.98;7.65;;;17.10;99.90;;;;;;5077868;28;20063;-87
2021/07/22 04:53:10;;;;;;;12.35;7.90;;;17.10;99.90;;;;;;5076728;28;20039;-86
2021/07/22 04:55:36;;;;;;;11.18;8.13;;;17.20;99.90;;;;;;5075059;28;20409;-85
2021/07/22 04:58:02;;;;;;;13.02;8.23;;;17.20;99.90;;;;;;5092465;28;20115;-86
2021/07/22 05:00:28;;;;;;;10.25;7.63;;;17.20;99.90;;;;;;5093121;28;20090;-86
2021/07/22 05:03:00;;;;;;;11.10;7.75;;;17.20;99.90;;;;;;5075925;28;20470;-85
2021/07/22 05:05:27;;;;;;;12.32;8.10;;;17.30;99.90;;;;;;5076618;28;20044;-85
2021/07/22 05:07:53;;;;;;;9.48;7.45;;;17.30;99.90;;;;;;5092432;28;20020;-87
2021/07/22 05:10:18;;;;;;;9.85;7.40;;;17.30;99.90;;;;;;5092320;28;20695;-87
2021/07/22 05:12:44;;;;;;;9.82;7.50;;;17.40;99.90;;;;;;5091165;28;20016;-86
2021/07/22 05:15:11;;;;;;;10.85;7.40;;;17.40;99.90;;;;;;5094463;28;20053;-88
2021/07/22 05:17:37;;;;;;;10.80;8.02;;;17.50;99.90;;;;;;5079785;28;20393;-87
2021/07/22 05:20:03;;;;;;;12.23;8.18;;;17.50;99.90;;;;;;5096066;28;20031;-86
2021/07/22 05:22:29;;;;;;;11.00;8.05;;;17.60;99.90;;;;;;5095712;28;20394;-86
2021/07/22 05:24:54;;;;;;;12.52;8.77;;;17.60;99.90;;;;;;5095720;28;20036;-88
2021/07/22 05:27:20;;;;;;;13.45;10.18;;;17.60;99.90;;;;;;5094756;28;20390;-86
2021/07/22 05:29:45;;;;;;;12.65;8.73;;;17.60;99.90;;;;;;5077371;28;20024;-86
2021/07/22 05:32:13;;;;;;;12.40;8.27;;;17.70;99.90;;;;;;5095316;28;20028;-87
2021/07/22 05:34:39;;;;;;;12.15;9.27;;;17.70;99.90;;;;;;5094929;28;20025;-86
2021/07/22 05:37:07;;;;;;;13.75;8.77;;;17.80;99.90;;;;;;5095051;28;20059;-87
2021/07/22 05:39:34;;;;;;;12.85;9.90;;;17.80;99.90;;;;;;5095566;28;20028;-88
2021/07/22 05:41:59;;;;;;;14.77;10.25;;;17.80;99.90;;;;;;5096431;28;20021;-88
2021/07/22 05:44:25;;;;;;;14.40;11.02;;;17.90;99.90;;;;;;5081753;28;20040;-87
2021/07/22 05:46:50;;;;;;;16.10;10.85;;;17.90;99.90;;;;;;5085850;28;20036;-87
2021/07/22 05:49:16;;;;;;;16.23;12.00;;;17.90;99.90;;;;;;5079509;28;20028;-88
2021/07/22 05:51:41;;;;;;;15.93;11.63;;;17.90;99.90;;;;;;5078550;28;20024;-88
2021/07/22 05:54:09;;;;;;;15.10;11.27;;;17.90;99.90;;;;;;5079889;28;20127;-89
2021/07/22 05:56:35;;;;;;;14.35;10.98;;;17.90;99.90;;;;;;5080318;28;20017;-89
2021/07/22 05:59:01;;;;;;;12.77;9.88;;;17.90;99.90;;;;;;5078277;28;20248;-93
2021/07/22 06:01:27;;;;;;;16.83;11.32;;;18.00;99.90;;;;;;5094610;22;20626;-85
2021/07/22 06:03:54;;;;;;;12.80;10.55;;;18.00;99.90;;;;;;5034364;28;20037;-86
2021/07/22 06:06:21;;;;;;;13.23;10.23;;;18.10;99.90;;;;;;5033982;28;20168;-84
2021/07/22 06:08:54;;;;;;;14.20;10.23;;;18.10;99.90;;;;;;5034980;28;20071;-83
2021/07/22 06:11:20;;;;;;;12.70;10.13;;;18.20;99.90;;;;;;5032589;28;20017;-85
2021/07/22 06:13:46;;;;;;;11.35;9.65;;;18.20;99.90;;;;;;5036635;28;20030;-85
2021/07/22 06:16:14;;;;;;;11.43;8.55;;;18.30;99.90;;;;;;5037523;28;20040;-84
2021/07/22 06:18:42;;;;;;;15.70;11.38;;;18.40;99.90;;;;;;5038055;28;20029;-86
2021/07/22 06:21:13;;;;;;;12.68;9.32;;;18.40;99.90;;;;;;5036438;28;20021;-86
2021/07/22 06:23:39;;;;;;;11.65;9.52;;;18.50;99.90;;;;;;5035565;28;20063;-86
2021/07/22 06:26:06;;;;;;;12.85;9.68;;;18.60;99.90;;;;;;5035592;28;20056;-85
2021/07/22 06:28:34;;;;;;;11.98;9.60;;;18.60;99.90;;;;;;5036344;28;20029;-85
2021/07/22 06:31:00;;;;;;;14.18;10.00;;;18.70;99.90;;;;;;5036706;28;20025;-85
2021/07/22 06:33:32;;;;;;;11.27;8.90;;;18.80;99.90;;;;;;5036461;28;20124;-84
2021/07/22 06:35:59;;;;;;;12.20;9.90;;;18.80;99.90;;;;;;5036120;28;20021;-85
2021/07/22 06:38:29;;;;;;;11.65;8.98;;;18.90;99.90;;;;;;5036351;28;20018;-84
2021/07/22 06:40:56;;;;;;;15.07;10.48;;;19.00;99.90;;;;;;5036589;28;20068;-86
2021/07/22 06:43:23;;;;;;;11.20;8.98;;;19.00;99.90;;;;;;5036707;28;20033;-84
2021/07/22 06:45:52;;;;;;;11.82;8.80;;;19.00;99.90;;;;;;5036151;28;20030;-85
2021/07/22 06:48:18;;;;;;;12.20;8.85;;;19.10;99.90;;;;;;5035725;28;20060;-84
2021/07/22 06:50:44;;;;;;;11.23;9.00;;;19.10;99.90;;;;;;5029661;28;20017;-84
2021/07/22 06:53:10;;;;;;;12.45;9.73;;;19.20;99.90;;;;;;5036206;28;20057;-84
2021/07/22 06:55:41;;;;;;;16.25;11.15;;;19.30;99.90;;;;;;5037268;28;20047;-83
2021/07/22 06:58:11;;;;;;;13.15;9.85;;;19.30;99.90;;;;;;5036204;28;20036;-84
2021/07/22 07:00:37;;;;;;;15.57;9.45;;;19.30;99.90;;;;;;5034903;28;20112;-83
2021/07/22 07:03:10;;;;;;;13.60;10.63;;;19.40;99.90;;;;;;5035842;28;20083;-81
2021/07/22 07:05:36;;;;;;;14.27;10.77;;;19.40;99.90;;;;;;5035959;28;20117;-80
2021/07/22 07:08:12;;;;;;;14.05;10.15;;;19.40;99.90;;;;;;5035182;28;20029;-84
2021/07/22 07:10:38;;;;;;;11.63;8.45;;;19.50;99.90;;;;;;5040781;28;20033;-84
2021/07/22 07:13:05;;;;;;;12.15;9.00;;;19.60;99.90;;;;;;5035895;28;20045;-84
2021/07/22 07:15:31;;;;;;;15.00;10.10;;;19.80;99.90;;;;;;5035860;28;20025;-83
2021/07/22 07:18:02;;;;;;;11.15;9.02;;;19.90;99.90;;;;;;5036903;28;20031;-84
2021/07/22 07:20:30;;;;;;;10.60;8.38;;;20.20;99.90;;;;;;5038474;28;20033;-83
2021/07/22 07:22:59;;;;;;;13.35;9.63;;;20.30;99.90;;;;;;5051201;28;20085;-84
2021/07/22 07:25:25;;;;;;;12.20;9.40;;;20.50;99.90;;;;;;5037725;28;20112;-84
2021/07/22 07:27:54;;;;;;;12.07;8.85;;;20.70;99.90;;;;;;5036450;28;20433;-84
2021/07/22 07:30:43;;;;;;;;;;;;;;;;;;;;;
2021/07/22 07:33:23;;;;;;;9.10;7.18;;;20.90;99.90;;;;;;5038351;28;20033;-83
2021/07/22 07:35:50;;;;;;;11.88;8.60;;;21.00;99.90;;;;;;5036263;28;20017;-83
2021/07/22 07:38:17;;;;;;;11.07;8.07;;;21.00;99.90;;;;;;5034249;28;20021;-82
2021/07/22 07:40:45;;;;;;;11.23;7.75;;;21.10;99.90;;;;;;5037614;28;20112;-85
2021/07/22 07:43:28;;;;;;;12.10;8.48;;;21.20;99.90;;;;;;5036393;28;20028;-85
2021/07/22 07:46:46;;;;;;;;;;;;;;;;;;;;;
2021/07/22 07:49:15;;;;;;;11.60;8.77;;;21.20;99.90;;;;;;5037582;28;20108;-82
2021/07/22 07:51:50;;;;;;;12.20;9.25;;;21.30;99.90;;;;;;5035972;28;20018;-82
2021/07/22 07:54:27;;;;;;;11.27;8.25;;;21.30;99.90;;;;;;5038898;28;20017;-86
2021/07/22 07:56:54;;;;;;;9.02;6.97;;;21.30;99.90;;;;;;5053287;28;20078;-84
2021/07/22 07:59:34;;;;;;;8.55;6.93;;;21.30;99.90;;;;;;5024780;28;20120;-80
2021/07/22 08:02:07;;;;;;;9.48;7.28;;;21.30;99.90;;;;;;5050925;28;20054;-85
2021/07/22 08:04:44;;;;;;;9.75;7.55;;;21.40;99.90;;;;;;5039499;28;20052;-85
2021/07/22 08:07:14;;;;;;;10.95;7.80;;;21.40;99.90;;;;;;5037747;28;20022;-84
2021/07/22 08:09:51;;;;;;;10.93;8.90;;;21.40;99.90;;;;;;5035828;28;20024;-84
2021/07/22 08:12:19;;;;;;;11.80;9.05;;;21.40;99.90;;;;;;5035216;28;20022;-85
2021/07/22 08:14:55;;;;;;;11.00;8.90;;;21.30;99.90;;;;;;5035311;28;20040;-86
2021/07/22 08:17:27;;;;;;;10.82;8.30;;;21.30;99.90;;;;;;5033505;28;20407;-87
2021/07/22 08:20:09;;;;;;;;;;;;;;;;;;;;;
2021/07/22 08:23:34;;;;;;;;;;;;;;;;;;;;;
2021/07/22 08:26:09;;;;;;;9.80;7.95;;;21.70;99.90;;;;;;5017875;28;20064;-86
2021/07/22 08:28:49;;;;;;;10.90;8.10;;;22.00;99.90;;;;;;5035426;28;20018;-86
2021/07/22 08:31:17;;;;;;;10.18;7.88;;;22.30;99.90;;;;;;5023179;28;20037;-85
2021/07/22 08:33:50;;;;;;;10.32;7.97;;;22.50;99.90;;;;;;5021106;28;20014;-86
2021/07/22 08:36:16;;;;;;;8.15;6.93;;;22.70;99.90;;;;;;5019356;28;20022;-86
2021/07/22 08:38:55;;;;;;;13.10;8.75;;;22.80;99.90;;;;;;5023984;28;20017;-84
2021/07/22 08:41:34;;;;;;;9.35;8.38;;;22.90;99.90;;;;;;5026019;28;20018;-84
2021/07/22 08:44:05;;;;;;;9.27;7.88;;;22.90;99.90;;;;;;5061010;28;20084;-85
2021/07/22 08:46:52;;;;;;;10.30;9.00;;;22.90;99.90;;;;;;5018815;28;20417;-85
2021/07/22 08:49:23;;;;;;;9.57;8.43;;;22.90;99.90;;;;;;5037905;28;20021;-85
2021/07/22 08:51:59;;;;;;;9.38;7.78;;;22.80;99.90;;;;;;5040039;28;20018;-85
2021/07/22 08:54:37;;;;;;;9.73;8.45;;;22.90;99.90;;;;;;5038058;28;20064;-86
2021/07/22 08:57:13;;;;;;;10.88;8.75;;;23.10;99.90;;;;;;5037811;28;20450;-85
2021/07/22 08:59:51;;;;;;;11.18;9.05;;;23.20;99.90;;;;;;5034237;28;20621;-83
2021/07/22 09:02:50;;;;;;;10.95;8.73;;;23.30;99.90;;;;;;5024421;28;20060;-87
2021/07/22 09:05:50;;;;;;;;;;;;;;;;;;;;;
2021/07/22 09:08:50;;;;;;;;;;;;;;;;;;;;;
2021/07/22 09:12:31;;;;;;;10.05;8.15;;;23.60;99.90;;;;;;5025628;28;20101;-88
2021/07/22 09:15:08;;;;;;;;;;;;;;;;;;;;;
2021/07/22 09:17:44;;;;;;;8.57;6.50;;;23.50;99.90;;;;;;5039516;28;20512;-86
2021/07/22 09:20:45;;;;;;;;;;;;;;;;;;;;;
2021/07/22 09:23:39;;;;;;;6.53;5.20;;;23.80;99.90;;;;;;5040431;28;20097;-86
2021/07/22 09:26:32;;;;;;;7.18;5.50;;;24.10;99.90;;;;;;5050457;28;20049;-86
2021/07/22 09:29:26;;;;;;;7.53;6.10;;;24.20;99.90;;;;;;5047667;28;20029;-87
2021/07/22 09:32:05;;;;;;;9.73;6.57;;;24.20;99.90;;;;;;5040104;28;20025;-86
2021/07/22 09:35:22;;;;;;;;;;;;;;;;;;;;;
2021/07/22 09:44:17;;;;;;;;;;;;;;;;;;;;;
2021/07/22 09:53:28;;;;;;;;;;;;;;;;;;;;;
2021/07/22 09:56:16;;;;;;;;;;;;;;;;;;;;;
2021/07/22 09:58:53;;;;;;;5.68;4.35;;;24.40;99.30;;;;;;5018983;28;20102;-86
2021/07/22 10:01:26;;;;;;;6.60;5.22;;;24.30;99.30;;;;;;5027282;28;20032;-86
2021/07/22 10:04:06;;;;;;;7.20;5.03;;;24.20;99.20;;;;;;5058657;28;20092;-86
2021/07/22 10:06:54;;;;;;;7.10;5.20;;;24.20;99.50;;;;;;5058361;28;20047;-87
2021/07/22 10:09:37;;;;;;;6.53;4.75;;;24.30;99.20;;;;;;5058500;28;20063;-86
2021/07/22 10:12:06;;;;;;;;;;;24.40;99.20;;;;;;5053169;28;20033;-87
2021/07/22 10:14:54;;;;;;;6.65;4.45;;;24.30;99.20;;;;;;5037971;28;19945;-86
2021/07/22 10:17:53;;;;;;;5.97;4.72;;;24.40;99.30;;;;;;5053400;28;20076;-85
2021/07/22 10:20:21;;;;;;;7.95;5.13;;;24.60;99.00;;;;;;5029767;28;20540;-86
2021/07/22 10:22:50;;;;;;;7.13;5.05;;;25.00;98.80;;;;;;5021548;28;20014;-85
2021/07/22 10:25:21;;;;;;;6.28;5.00;;;25.40;98.40;;;;;;5038152;28;20116;-85
2021/07/22 10:27:52;;;;;;;6.25;5.03;;;25.70;98.10;;;;;;5021181;28;20112;-86
2021/07/22 10:30:38;;;;;;;;;;;;;;;;;;;;;
2021/07/22 10:33:11;;;;;;;6.20;4.82;;;26.10;97.20;;;;;;5050169;28;20112;-86
2021/07/22 10:35:40;;;;;;;5.68;4.75;;;26.30;96.90;;;;;;5045675;28;20025;-87
2021/07/22 10:38:27;;;;;;;6.45;4.72;;;27.00;96.40;;;;;;5036409;28;20032;-84
2021/07/22 10:41:31;;;;;;;6.05;5.03;;;27.90;95.50;;;;;;5031006;28;20029;-85
2021/07/22 10:44:01;;;;;;;6.55;5.20;;;28.10;94.80;;;;;;5038667;28;20028;-86
2021/07/22 10:47:14;;;;;;;5.97;4.25;;;27.90;94.70;;;;;;5005193;28;20030;-85
2021/07/22 10:49:41;;;;;;;5.82;4.30;;;28.00;94.10;;;;;;5036944;28;20030;-85
2021/07/22 10:52:33;;;;;;;5.82;4.70;;;27.70;94.00;;;;;;5003753;28;20025;-84
2021/07/22 10:55:01;;;;;;;5.68;4.57;;;27.30;94.10;;;;;;5019556;28;20049;-85
2021/07/22 10:57:53;;;;;;;6.57;4.47;;;26.80;94.00;;;;;;5020395;28;20441;-84
2021/07/22 11:00:49;;;;;;;5.50;4.85;;;26.20;94.30;;;;;;5002930;28;20124;-86
2021/07/22 11:03:43;;;;;;;7.13;5.30;;;25.70;94.80;;;;;;5038043;28;20073;-83
2021/07/22 11:06:14;;;;;;;6.82;4.72;;;25.40;95.00;;;;;;5020460;28;20026;-84
2021/07/22 11:09:13;;;;;;;7.03;4.82;;;25.00;95.20;;;;;;5003981;28;20017;-85
2021/07/22 11:11:59;;;;;;;7.97;5.40;;;25.00;95.50;;;;;;5040305;28;20026;-84
2021/07/22 11:14:46;;;;;;;5.68;4.45;;;25.00;95.40;;;;;;5026737;28;20496;-84
2021/07/22 11:17:35;;;;;;;6.75;4.65;;;25.10;95.60;;;;;;5054457;28;20084;-85
2021/07/22 11:20:43;;;;;;;;;;;;;;;;;;;;;
2021/07/22 11:23:23;;;;;;;5.05;4.00;;;26.50;94.70;;;;;;5041423;28;20108;-85
2021/07/22 11:25:53;;;;;;;5.47;4.63;;;27.20;94.10;;;;;;5020632;28;20052;-86
2021/07/22 11:28:36;;;;;;;6.35;4.47;;;27.30;93.70;;;;;;5004982;28;20014;-85
2021/07/22 11:31:12;;;;;;;;;;;27.20;93.30;;;;;;5022025;28;20112;-85
2021/07/22 11:33:41;;;;;;;5.40;4.72;;;27.00;93.30;;;;;;5037678;28;19907;-85
2021/07/22 11:36:22;;;;;;;5.88;4.75;;;26.80;93.40;;;;;;5020671;28;20464;-85
2021/07/22 11:39:01;;;;;;;5.82;4.20;;;26.70;93.40;;;;;;5020610;28;20037;-85
2021/07/22 11:41:27;;;;;;;6.22;4.57;;;26.50;93.40;;;;;;5020973;28;20121;-85
2021/07/22 11:43:59;;;;;;;5.57;4.47;;;26.40;93.30;;;;;;5038578;28;20039;-85
2021/07/22 11:46:41;;;;;;;5.20;4.35;;;26.30;93.30;;;;;;5005829;28;20045;-84
2021/07/22 11:49:16;;;;;;;5.60;4.35;;;26.30;93.40;;;;;;5039618;28;20020;-84
2021/07/22 11:52:25;;;;;;;5.43;4.20;;;26.90;93.40;;;;;;5022329;28;20409;-88
2021/07/22 11:58:38;;;;;;;5.25;3.67;;;29.60;91.50;;;;;;5017153;28;20025;-88
2021/07/22 12:01:19;;;;;;;5.68;4.22;;;30.60;90.80;;;;;;5038041;28;20033;-88
2021/07/22 12:04:24;;;;;;;5.10;4.00;;;31.20;88.90;;;;;;5017016;28;20053;-88
2021/07/22 12:07:20;;;;;;;5.60;4.10;;;31.60;86.90;;;;;;4994597;28;20434;-88
2021/07/22 12:10:05;;;;;;;;;;;32.10;85.30;;;;;;5010808;28;20065;-88
2021/07/22 12:12:54;;;;;;;;;;;;;;;;;;;;;
2021/07/22 12:15:47;;;;;;;5.95;3.65;;;32.40;83.70;;;;;;5017234;28;20108;-88
2021/07/22 12:18:35;;;;;;;4.40;3.53;;;32.90;80.80;;;;;;5012120;28;20025;-89
2021/07/22 12:21:40;;;;;;;5.57;3.70;;;33.20;79.80;;;;;;5017851;28;20472;-89
2021/07/22 12:25:03;;;;;;;4.70;3.70;;;33.50;76.60;;;;;;5021362;28;20065;-89
2021/07/22 12:37:18;;;;;;;4.72;4.20;;;30.30;76.50;;;;;;5053632;28;20055;-89
2021/07/22 12:40:09;;;;;;;5.38;4.05;;;29.50;78.20;;;;;;5044355;28;20594;-90
2021/07/22 12:43:04;;;;;;;5.28;4.20;;;28.90;79.00;;;;;;5061514;28;20040;-91
2021/07/22 12:46:12;;;;;;;5.82;4.43;;;28.90;79.80;;;;;;5061482;28;20041;-90
2021/07/22 12:48:48;;;;;;;5.70;3.42;;;29.30;78.90;;;;;;5044032;28;20086;-90
2021/07/22 12:51:20;;;;;;;4.07;3.60;;;30.30;78.10;;;;;;5044717;28;20037;-88
2021/07/22 12:53:58;;;;;;;5.55;3.80;;;31.10;77.10;;;;;;5045036;28;20043;-88
2021/07/22 12:56:56;;;;;;;;;;;;;;;;;;;;;
2021/07/22 12:59:33;;;;;;;5.25;3.72;;;31.40;73.00;;;;;;5061071;28;20128;-90
2021/07/22 13:02:00;;;;;;;5.55;3.60;;;30.60;73.70;;;;;;5044291;28;20022;-89
2021/07/22 13:04:37;;;;;;;;;;;;;;;;;;;;;
2021/07/22 13:10:26;;;;;;;;;;;;;;;;;;;;;
2021/07/22 13:13:09;;;;;;;4.50;3.40;;;32.00;72.20;;;;;;5062971;28;20118;-89
2021/07/22 13:15:56;;;;;;;;;;;;;;;;;;;;;
2021/07/22 13:18:26;;;;;;;5.07;3.25;;;32.20;69.40;;;;;;5073706;28;20044;-89
2021/07/22 13:21:33;;;;;;;;;;;;;;;;;;;;;
2021/07/22 13:24:07;;;;;;;3.92;3.13;;;31.20;70.30;;;;;;5078888;28;20029;-88
2021/07/22 13:26:56;;;;;;;4.53;3.20;;;30.50;71.10;;;;;;5080112;28;20025;-87
2021/07/22 13:30:08;;;;;;;;;;;;;;;;;;;;;
2021/07/22 13:33:01;;;;;;;5.57;3.75;;;30.90;71.30;;;;;;5056298;28;20066;-88
2021/07/22 13:35:41;;;;;;;3.80;2.80;;;31.70;69.60;;;;;;5062670;28;20053;-89
2021/07/22 13:38:08;;;;;;;4.38;3.03;;;32.10;69.40;;;;;;5050874;28;20465;-87
2021/07/22 13:41:11;;;;;;;4.80;3.65;;;32.70;68.10;;;;;;5043661;28;20044;-89
2021/07/22 13:43:42;;;;;;;;;;;33.00;66.00;;;;;;5043709;28;20025;-86
2021/07/22 13:46:15;;;;;;;5.88;3.30;;;32.90;66.40;;;;;;5056141;28;19991;-86
2021/07/22 13:48:42;;;;;;;4.43;3.08;;;33.10;65.60;;;;;;5060401;28;20089;-86
2021/07/22 13:51:16;;;;;;;4.30;2.90;;;33.40;65.50;;;;;;5041107;28;20033;-86
2021/07/22 13:54:22;;;;;;;4.43;3.13;;;33.70;64.50;;;;;;5056563;28;20044;-86
2021/07/22 13:56:54;;;;;;;4.15;3.13;;;33.70;62.90;;;;;;5013145;28;20476;-83
2021/07/22 13:59:23;;;;;;;;;;;33.90;63.40;;;;;;5047241;28;20129;-86
2021/07/22 14:01:58;;;;;;;3.78;2.92;;;33.80;62.30;;;;;;5052633;28;19924;-86
2021/07/22 14:04:24;;;;;;;3.70;3.03;;;34.20;62.70;;;;;;5059498;28;20029;-86
2021/07/22 14:10:04;;;;;;;3.67;3.03;;;32.80;62.80;;;;;;4992832;28;20120;-87